Pittsburgh, Pennsylvania
Traffic Map
Current Weather Conditions
Pittsburgh, Pennsylvania
Overcast Light Rain
Overcast
71°
Feels Like: 71°
Wind Chill: 71° Ceiling: 9000
Heat Index: 71° Visibility: 3mi
Dew Point: 65° Wind: 14mph
Humidity: 81% Direction: 230° (SW)
Pressure: 29.98in Gusts: 31mph
Raw Report DataKAGC 072355Z AUTO 23012G27KT 3SM -RA SCT035 BKN090 OVC110 22/18 A2998 RMK AO2 P0000 T02170183 TSNO
Traffic Incident Summary
Active as of:
Severity:
Category:
InformationThere was an issue retrieving the traffic information for this location. Please try a different location or try again shortly.
Advertisements
Track Severe Weather on mobile